Ignatyevo Airport
UHBB : now visible

Airfield :











YOU CAN JOIN US ON...

 
LOGIN :

Register | Disclaimer

   EN    FR    IT 

 









Legend :    VFR   Marginal VFR   IFR   Intensive IFR   Very Intensive IFR
Visi :
Ceiling :
>= 8 km
>= 3000ft
5 to 8 km
1000 to 3000 ft
1500m to 5 km
500 to 1000 ft
800 to 1500m
200 to 500 ft
< 800m
< 200 ft
Symbols :   Thunderstorms  Fog  Heavy snow  Heavy precipitations  Wind > 20 kt






- Airport Elevation : 638 ft
- IATA code : BQS


UHBB - Ignatyevo

CURRENT METAR :
  • 171000Z 00000MPS 9000 SCT033 M13/M18 Q1020 R36/090060 NOSIG RMK QFE748/0997

EXPIRED METARs :
  • 170930Z 30001MPS 9999 SCT033 M13/M18 Q1021 R36/090060 NOSIG RMK QFE748/0998
  • 170900Z 00000MPS 9999 SCT033 M13/M19 Q1021 R18/090060 NOSIG RMK QFE750/1001
  • 170830Z 25001MPS 9999 SCT033 M13/M18 Q1022 R36/090060 NOSIG RMK QFE749/0998
  • 170800Z 07002MPS 9999 SCT033 M12/M19 Q1021 R36/090060 NOSIG RMK QFE748/0998
  • 170730Z 06002MPS 9999 SCT033 M12/M19 Q1022 R36/090060 NOSIG RMK QFE749/0998

TAF TAF UHBB
Valid from the 17 at 09:00 until the 18 at 09:00 UTC


170755Z 1709/1809 08003MPS 9999 SCT030
FM171500 02003MPS 3100 -SHSN SCT011 BKN020CB
BECMG 1718/1720 0500 +SHSN SCT005 BKN015CB
BECMG 1801/1803 36006G11MPS
TEMPO 1803/1809 1500 SHSN



MET'MAP, your aeronautical weather chart ! - Copyright ORBIFLY December 2007 - Disclaimer

ORBIFLY MET'MAP TEAM :

Programming & Development : Alexandra Zaïnal
Concept & Development : Baudouin d'Aumeries
Co-Development & Prog : Marc-Olivier Méhu
Technical & hardware support : Manuel Goepfert

Contact : metmap@orbifly.com




SOURCES & CREDITS :

   NOAA       Earth
Advisory